Time;durP1;ratioP1;P1;durP2;ratioP2;P2;SDS_P1;SDS_P2;PMS_P1;PMS_P2;Temp;Humidity;BMP_temperature;BMP_pressure;BME280_temperature;BME280_humidity;BME280_pressure;Samples;Min_cycle;Max_cycle;Signal;HPM_P1;HPM_P2
2022/06/28 00:01:58;;;;;;;2.15;2.00;;;26.90;81.60;;;;;;5010695;28;20198;-62
2022/06/28 00:04:26;;;;;;;2.20;2.00;;;26.90;81.80;;;;;;5027499;28;20276;-62
2022/06/28 00:06:53;;;;;;;2.10;2.00;;;26.90;81.90;;;;;;5028749;28;20285;-61
2022/06/28 00:09:21;;;;;;;1.90;1.80;;;26.90;81.90;;;;;;5028875;28;20273;-62
2022/06/28 00:11:48;;;;;;;1.90;1.80;;;26.90;81.90;;;;;;5028316;28;20272;-62
2022/06/28 00:17:01;;;;;;;1.80;1.70;;;26.90;81.80;;;;;;5028280;28;20516;-63
2022/06/28 00:19:28;;;;;;;1.67;1.67;;;26.80;81.70;;;;;;5026930;28;20268;-62
2022/06/28 00:21:56;;;;;;;1.77;1.67;;;26.80;81.80;;;;;;5030198;28;20256;-63
2022/06/28 00:24:23;;;;;;;1.75;1.65;;;26.80;81.80;;;;;;5032677;28;20195;-62
2022/06/28 00:26:50;;;;;;;1.65;1.65;;;26.80;81.90;;;;;;5032083;28;20254;-62
2022/06/28 00:29:17;;;;;;;2.13;2.03;;;26.70;82.10;;;;;;5014723;28;20218;-62
2022/06/28 00:31:45;;;;;;;2.15;2.05;;;26.70;82.30;;;;;;5022903;28;20766;-62
2022/06/28 00:34:13;;;;;;;2.95;2.10;;;26.60;82.40;;;;;;5028974;28;20280;-62
2022/06/28 00:36:40;;;;;;;2.10;2.00;;;26.60;82.60;;;;;;5007095;28;20289;-61
2022/06/28 00:39:08;;;;;;;4.72;2.42;;;26.50;82.60;;;;;;5031818;28;20286;-61
2022/06/28 00:41:35;;;;;;;2.10;2.00;;;26.60;82.70;;;;;;5014030;28;20202;-61
2022/06/28 00:44:03;;;;;;;2.47;2.28;;;26.50;83.40;;;;;;5013310;28;20218;-61
2022/06/28 00:46:33;;;;;;;1.90;1.80;;;26.50;82.70;;;;;;5031794;28;20277;-61
2022/06/28 00:49:01;;;;;;;5.65;2.13;;;26.50;82.80;;;;;;5029932;28;20194;-62
2022/06/28 00:51:29;;;;;;;3.10;2.45;;;26.50;82.80;;;;;;5013965;28;20578;-62
2022/06/28 00:53:56;;;;;;;2.88;2.67;;;26.50;83.00;;;;;;5031491;28;20301;-61
2022/06/28 00:56:24;;;;;;;2.85;2.65;;;26.50;83.10;;;;;;5013894;28;20562;-61
2022/06/28 00:58:55;;;;;;;3.40;3.10;;;26.40;83.10;;;;;;5014172;28;20690;-62
2022/06/28 01:01:22;;;;;;;3.80;3.50;;;26.40;83.30;;;;;;5032419;28;20258;-61
2022/06/28 01:03:51;;;;;;;12.93;9.77;;;26.30;83.40;;;;;;5028482;28;20242;-61
2022/06/28 01:06:19;;;;;;;30.35;17.88;;;26.30;83.50;;;;;;5013724;28;20202;-61
2022/06/28 01:08:48;;;;;;;22.17;13.98;;;26.30;83.50;;;;;;5013805;28;20210;-61
2022/06/28 01:11:21;;;;;;;13.45;9.10;;;26.30;84.40;;;;;;5030428;28;20257;-61
2022/06/28 01:13:55;;;;;;;8.80;6.72;;;26.20;83.70;;;;;;5029491;28;20236;-61
2022/06/28 01:16:24;;;;;;;6.68;5.47;;;26.20;83.80;;;;;;5013608;28;20234;-61
2022/06/28 01:19:02;;;;;;;5.13;4.40;;;26.20;83.90;;;;;;5011800;28;20198;-62
2022/06/28 01:21:36;;;;;;;4.20;3.90;;;26.20;84.10;;;;;;5013889;28;20289;-61
2022/06/28 01:24:06;;;;;;;3.53;3.33;;;26.20;84.10;;;;;;5014021;28;20276;-61
2022/06/28 01:26:42;;;;;;;3.67;3.40;;;26.20;84.20;;;;;;5013844;28;20242;-61
2022/06/28 01:29:10;;;;;;;3.22;3.03;;;26.20;84.40;;;;;;5013218;28;20213;-61
2022/06/28 01:31:45;;;;;;;3.08;2.88;;;26.10;84.50;;;;;;5006313;28;20214;-61
2022/06/28 01:34:16;;;;;;;2.50;2.40;;;26.00;84.60;;;;;;5027882;28;20285;-61
2022/06/28 01:36:43;;;;;;;3.08;2.88;;;26.00;84.80;;;;;;5010254;28;20207;-61
2022/06/28 01:39:12;;;;;;;2.78;2.58;;;26.00;84.90;;;;;;5024291;28;20234;-61
2022/06/28 01:41:39;;;;;;;2.92;2.75;;;25.90;85.80;;;;;;5013123;28;20198;-61
2022/06/28 01:44:17;;;;;;;2.70;2.50;;;25.90;85.10;;;;;;5012766;28;20301;-61
2022/06/28 01:47:08;;;;;;;2.53;2.35;;;25.90;85.20;;;;;;5022273;28;20206;-62
2022/06/28 01:49:55;;;;;;;2.58;2.00;;;25.90;85.30;;;;;;5019269;28;20547;-61
2022/06/28 01:52:24;;;;;;;1.90;1.80;;;25.90;85.30;;;;;;5012600;28;20689;-61
2022/06/28 01:54:52;;;;;;;2.65;2.50;;;25.90;85.30;;;;;;5012792;28;20214;-61
2022/06/28 01:57:21;;;;;;;2.90;2.70;;;25.90;85.50;;;;;;5012660;28;20328;-62
2022/06/28 01:59:54;;;;;;;3.50;3.20;;;25.80;85.60;;;;;;5021442;28;20230;-61
2022/06/28 02:02:40;;;;;;;3.20;2.88;;;25.80;85.90;;;;;;5030452;28;20284;-61
2022/06/28 02:05:27;;;;;;;2.72;2.53;;;25.80;85.90;;;;;;5028682;28;20559;-61
2022/06/28 02:07:56;;;;;;;2.85;2.60;;;25.70;86.10;;;;;;5012391;28;20202;-61
2022/06/28 02:10:27;;;;;;;3.22;2.92;;;25.60;86.30;;;;;;5011684;28;20223;-61
2022/06/28 02:12:54;;;;;;;2.63;2.50;;;25.60;86.50;;;;;;5011872;28;20205;-61
2022/06/28 02:15:22;;;;;;;2.50;2.40;;;25.60;86.60;;;;;;5030320;28;20733;-61
2022/06/28 02:17:49;;;;;;;2.80;2.60;;;25.50;86.70;;;;;;5027897;28;20199;-61
2022/06/28 02:20:17;;;;;;;2.90;2.72;;;25.50;86.90;;;;;;5010517;28;20264;-61
2022/06/28 02:22:45;;;;;;;2.78;2.58;;;25.50;87.00;;;;;;5012097;28;20210;-61
2022/06/28 02:25:12;;;;;;;2.72;2.58;;;25.50;87.10;;;;;;5015758;28;20252;-61
2022/06/28 02:27:40;;;;;;;3.40;2.40;;;25.50;87.10;;;;;;4994218;28;20636;-61
2022/06/28 02:30:09;;;;;;;3.00;2.70;;;25.50;87.30;;;;;;4990800;28;20719;-62
2022/06/28 02:32:36;;;;;;;3.80;2.55;;;25.50;87.50;;;;;;4980573;28;20208;-62
2022/06/28 02:40:32;;;;;;;2.47;2.33;;;25.40;87.70;;;;;;4990822;28;20702;-61
2022/06/28 02:43:01;;;;;;;4.07;2.90;;;25.40;87.80;;;;;;4989677;28;20204;-61
2022/06/28 02:45:31;;;;;;;3.00;2.80;;;25.40;88.00;;;;;;4989051;28;20361;-61
2022/06/28 02:47:58;;;;;;;2.40;2.28;;;25.40;88.00;;;;;;4989375;28;20219;-61
2022/06/28 02:50:26;;;;;;;2.60;2.47;;;25.40;88.10;;;;;;4987741;28;20313;-61
2022/06/28 02:52:53;;;;;;;4.25;2.70;;;25.40;88.20;;;;;;4990015;28;20203;-61
2022/06/28 02:55:21;;;;;;;4.18;2.90;;;25.30;88.30;;;;;;4989939;28;20200;-61
2022/06/28 02:57:48;;;;;;;2.95;2.75;;;25.30;88.40;;;;;;4990458;28;20208;-61
2022/06/28 03:00:18;;;;;;;3.05;2.83;;;25.30;88.50;;;;;;4988710;28;20208;-61
2022/06/28 03:02:47;;;;;;;3.03;2.83;;;25.30;88.60;;;;;;4988311;28;20203;-62
2022/06/28 03:05:18;;;;;;;2.92;2.72;;;25.30;88.70;;;;;;4986611;28;20211;-62
2022/06/28 03:07:45;;;;;;;2.55;2.42;;;25.30;88.80;;;;;;4981108;28;20200;-62
2022/06/28 03:10:13;;;;;;;3.55;3.25;;;25.20;88.80;;;;;;4988546;28;20211;-62
2022/06/28 03:12:40;;;;;;;3.58;3.38;;;25.20;88.90;;;;;;4988216;28;20271;-61
2022/06/28 03:15:09;;;;;;;3.45;3.10;;;25.20;89.10;;;;;;4988313;28;20238;-61
2022/06/28 03:17:38;;;;;;;2.95;2.70;;;25.10;89.20;;;;;;4987865;28;20200;-61
2022/06/28 03:20:06;;;;;;;3.97;2.65;;;25.10;89.40;;;;;;5004042;28;20204;-61
2022/06/28 03:22:33;;;;;;;3.25;3.05;;;25.10;89.50;;;;;;4990302;28;20203;-61
2022/06/28 03:25:00;;;;;;;3.20;3.00;;;25.10;89.70;;;;;;4990025;28;20200;-61
2022/06/28 03:27:27;;;;;;;4.18;3.25;;;25.10;89.70;;;;;;5016471;28;20666;-62
2022/06/28 03:29:55;;;;;;;3.90;3.60;;;25.10;89.90;;;;;;5011191;28;20225;-62
2022/06/28 03:32:27;;;;;;;3.75;3.45;;;25.00;89.90;;;;;;5006568;28;20218;-62
2022/06/28 03:34:56;;;;;;;3.70;3.50;;;25.00;90.00;;;;;;5019277;28;20233;-61
2022/06/28 03:37:25;;;;;;;2.78;2.63;;;25.00;90.00;;;;;;5010995;28;20205;-61
2022/06/28 03:39:57;;;;;;;2.85;2.65;;;25.00;90.10;;;;;;5011229;28;20306;-61
2022/06/28 03:42:25;;;;;;;4.68;3.00;;;24.90;90.20;;;;;;5010436;28;20194;-61
2022/06/28 03:44:54;;;;;;;3.60;3.35;;;24.90;90.20;;;;;;5010072;28;20202;-60
2022/06/28 03:47:21;;;;;;;3.35;3.15;;;24.90;90.30;;;;;;5010340;28;20224;-61
2022/06/28 03:50:01;;;;;;;3.13;2.80;;;24.90;90.40;;;;;;5027612;28;20225;-61
2022/06/28 03:52:47;;;;;;;3.58;3.28;;;24.90;90.50;;;;;;5028701;28;20309;-61
2022/06/28 03:55:14;;;;;;;4.47;3.38;;;24.90;90.50;;;;;;5028437;28;20571;-61
2022/06/28 03:57:51;;;;;;;3.25;3.05;;;24.90;90.50;;;;;;5014401;28;20713;-60
2022/06/28 04:00:19;;;;;;;6.72;2.75;;;24.90;90.50;;;;;;5014994;28;20264;-60
2022/06/28 04:02:50;;;;;;;4.15;3.45;;;24.90;90.50;;;;;;5022356;28;20286;-61
2022/06/28 04:05:30;;;;;;;3.45;3.25;;;24.80;90.60;;;;;;5024602;28;20678;-62
2022/06/28 04:08:00;;;;;;;4.22;3.83;;;24.90;90.60;;;;;;5014674;28;20209;-61
2022/06/28 04:10:37;;;;;;;6.97;3.65;;;24.90;90.70;;;;;;5014693;28;20701;-62
2022/06/28 04:13:11;;;;;;;3.85;3.55;;;24.80;90.70;;;;;;5008480;28;20681;-61
2022/06/28 04:15:39;;;;;;;5.50;4.00;;;24.90;90.70;;;;;;5032446;28;20270;-62
2022/06/28 04:18:10;;;;;;;4.05;3.75;;;24.80;90.80;;;;;;5013201;28;20202;-61
2022/06/28 04:20:57;;;;;;;6.03;3.40;;;24.80;90.80;;;;;;5032636;28;20260;-60
2022/06/28 04:23:25;;;;;;;3.45;3.25;;;24.80;90.90;;;;;;5013949;28;20297;-61
2022/06/28 04:25:53;;;;;;;4.15;3.47;;;24.80;91.30;;;;;;5032824;28;20198;-61
2022/06/28 04:28:26;;;;;;;5.25;3.50;;;24.80;91.10;;;;;;5014157;28;20203;-61
2022/06/28 04:31:07;;;;;;;6.10;3.67;;;24.80;91.10;;;;;;5031819;28;20214;-61
2022/06/28 04:33:34;;;;;;;3.38;3.17;;;24.80;91.20;;;;;;5027989;28;20210;-61
2022/06/28 04:36:04;;;;;;;3.88;3.58;;;24.80;91.30;;;;;;5032033;28;20202;-61
2022/06/28 04:38:34;;;;;;;4.88;3.90;;;24.80;91.40;;;;;;5013678;28;20237;-61
2022/06/28 04:41:13;;;;;;;6.53;3.88;;;24.80;91.40;;;;;;5014595;28;20202;-60
2022/06/28 04:44:15;;;;;;;4.13;3.83;;;24.80;91.50;;;;;;5009551;28;20229;-61
2022/06/28 04:46:48;;;;;;;5.25;3.60;;;24.80;91.60;;;;;;5013288;28;20210;-61
2022/06/28 04:49:19;;;;;;;8.02;3.90;;;24.80;91.60;;;;;;5012084;28;20210;-60
2022/06/28 04:51:52;;;;;;;7.32;4.15;;;24.80;91.70;;;;;;5013450;28;20214;-61
2022/06/28 04:54:28;;;;;;;4.90;3.88;;;24.80;91.70;;;;;;5013997;28;20210;-61
2022/06/28 04:57:27;;;;;;;4.20;3.83;;;24.90;91.70;;;;;;5011265;28;20551;-61
2022/06/28 05:00:08;;;;;;;5.65;3.67;;;25.00;91.70;;;;;;5012761;28;20253;-60
2022/06/28 05:02:40;;;;;;;5.13;3.38;;;25.00;91.80;;;;;;5029581;28;20213;-63
2022/06/28 05:05:14;;;;;;;4.20;3.58;;;25.00;91.70;;;;;;5012028;28;20225;-62
2022/06/28 05:07:44;;;;;;;5.88;3.78;;;25.10;91.70;;;;;;5028999;28;20302;-62
2022/06/28 05:10:19;;;;;;;4.30;4.00;;;25.10;91.70;;;;;;5013865;28;20209;-61
2022/06/28 05:13:00;;;;;;;3.55;3.25;;;25.10;91.70;;;;;;5012560;28;20324;-61
2022/06/28 05:15:27;;;;;;;3.13;2.92;;;25.20;91.70;;;;;;5031281;28;20225;-61
2022/06/28 05:18:08;;;;;;;3.40;2.55;;;25.20;91.60;;;;;;5011967;28;20304;-63
2022/06/28 05:20:35;;;;;;;4.53;3.92;;;25.30;91.50;;;;;;5011478;28;20209;-61
2022/06/28 05:23:04;;;;;;;3.55;3.35;;;25.50;91.50;;;;;;5013091;28;20325;-61
2022/06/28 05:25:50;;;;;;;7.95;4.55;;;25.50;91.40;;;;;;5031637;28;20213;-61
2022/06/28 05:28:17;;;;;;;4.53;3.85;;;25.60;91.50;;;;;;5012812;28;20724;-61
2022/06/28 05:30:44;;;;;;;7.57;3.90;;;25.60;91.40;;;;;;5028430;28;20286;-61
2022/06/28 05:33:11;;;;;;;6.22;4.45;;;25.60;91.40;;;;;;5006756;28;20214;-61
2022/06/28 05:35:39;;;;;;;4.22;3.83;;;25.60;91.40;;;;;;5016061;28;20203;-61
2022/06/28 05:38:08;;;;;;;6.60;4.00;;;25.60;91.80;;;;;;5031004;28;20197;-60
2022/06/28 05:40:35;;;;;;;4.72;3.58;;;25.70;91.40;;;;;;5001693;28;20289;-61
2022/06/28 05:43:02;;;;;;;4.55;3.55;;;25.70;91.40;;;;;;5012443;28;20203;-61
2022/06/28 05:45:29;;;;;;;5.10;4.15;;;25.70;91.30;;;;;;5013084;28;20202;-61
2022/06/28 05:47:57;;;;;;;4.93;4.10;;;25.70;91.20;;;;;;5030249;28;20293;-61
2022/06/28 05:50:24;;;;;;;4.70;3.65;;;25.70;91.30;;;;;;5028924;28;20194;-60
2022/06/28 05:52:52;;;;;;;4.65;4.03;;;25.70;91.30;;;;;;5030869;28;20207;-61
2022/06/28 05:55:21;;;;;;;3.80;3.50;;;25.70;91.20;;;;;;5012480;28;20206;-61
2022/06/28 05:57:51;;;;;;;3.92;3.63;;;25.70;91.30;;;;;;5012744;28;20212;-61
2022/06/28 06:00:19;;;;;;;4.30;3.90;;;25.80;91.40;;;;;;5012468;28;20218;-61
2022/06/28 06:02:46;;;;;;;4.57;4.00;;;25.80;91.40;;;;;;5012154;28;20293;-60
2022/06/28 06:05:13;;;;;;;6.75;4.43;;;25.80;91.40;;;;;;5028774;28;20230;-62
2022/06/28 06:07:40;;;;;;;6.75;4.20;;;25.80;91.50;;;;;;5011016;28;20241;-61
2022/06/28 06:10:10;;;;;;;14.07;4.88;;;25.80;91.70;;;;;;5009052;28;20231;-61
2022/06/28 06:12:38;;;;;;;4.50;4.10;;;25.80;91.70;;;;;;5029618;28;20238;-61
2022/06/28 06:15:06;;;;;;;5.30;3.55;;;25.80;91.80;;;;;;5028617;28;20257;-61
2022/06/28 06:17:33;;;;;;;4.50;3.88;;;25.70;91.80;;;;;;5028033;28;20662;-61
2022/06/28 06:20:02;;;;;;;5.82;3.58;;;25.80;91.80;;;;;;5008513;28;20217;-61
2022/06/28 06:22:29;;;;;;;3.75;3.38;;;25.80;91.80;;;;;;5028626;28;20198;-60
2022/06/28 06:24:57;;;;;;;3.00;2.80;;;25.90;92.20;;;;;;5027111;28;20206;-60
2022/06/28 06:27:29;;;;;;;4.43;3.05;;;25.90;91.90;;;;;;4996506;28;20235;-60
2022/06/28 06:29:58;;;;;;;3.65;3.45;;;25.90;91.80;;;;;;4987496;28;20208;-60
2022/06/28 06:32:37;;;;;;;4.63;3.40;;;25.90;91.90;;;;;;4980362;28;20298;-60
2022/06/28 06:35:13;;;;;;;3.10;2.90;;;25.90;91.90;;;;;;4985700;28;20250;-60
2022/06/28 06:37:40;;;;;;;3.50;2.90;;;25.90;91.90;;;;;;5005466;28;20238;-60
2022/06/28 06:40:09;;;;;;;5.70;3.20;;;26.00;91.90;;;;;;5004392;28;20502;-60
2022/06/28 06:42:36;;;;;;;3.35;3.15;;;26.00;91.90;;;;;;4990311;28;20196;-60
2022/06/28 06:45:07;;;;;;;5.03;3.40;;;26.00;91.90;;;;;;4988119;28;20200;-60
2022/06/28 06:47:35;;;;;;;4.45;3.20;;;26.00;92.00;;;;;;4988941;28;20203;-60
2022/06/28 06:50:07;;;;;;;3.38;3.00;;;26.10;92.00;;;;;;4987091;28;20283;-61
2022/06/28 06:52:34;;;;;;;3.72;3.35;;;26.10;92.00;;;;;;4990270;28;20236;-60
2022/06/28 06:55:01;;;;;;;2.97;2.75;;;26.10;92.00;;;;;;4987300;28;20206;-60
2022/06/28 06:57:28;;;;;;;2.78;2.58;;;26.20;91.90;;;;;;4988484;28;20562;-60
2022/06/28 06:59:55;;;;;;;2.78;2.38;;;26.20;91.90;;;;;;4989616;28;20299;-60
2022/06/28 07:02:25;;;;;;;6.20;3.00;;;26.20;91.80;;;;;;4983759;28;20302;-60
2022/06/28 07:04:56;;;;;;;2.88;2.67;;;26.30;92.00;;;;;;5003421;28;20199;-60
2022/06/28 07:07:23;;;;;;;2.22;2.13;;;26.30;91.50;;;;;;4988193;28;20211;-60
2022/06/28 07:09:50;;;;;;;2.80;2.63;;;26.30;91.50;;;;;;4989916;28;20641;-61
2022/06/28 07:12:18;;;;;;;2.70;2.38;;;26.30;91.40;;;;;;4987636;28;20220;-61
2022/06/28 07:14:45;;;;;;;2.10;2.00;;;26.30;91.30;;;;;;5004679;28;20219;-61
2022/06/28 07:17:15;;;;;;;2.85;2.25;;;26.30;91.40;;;;;;4988020;28;20684;-61
2022/06/28 07:19:43;;;;;;;1.92;1.83;;;26.30;91.60;;;;;;5002470;28;20285;-60
2022/06/28 07:22:10;;;;;;;2.30;2.10;;;26.30;92.10;;;;;;4989602;28;20192;-61
2022/06/28 07:24:41;;;;;;;3.33;3.00;;;26.30;91.90;;;;;;4992487;28;20295;-61
2022/06/28 07:27:10;;;;;;;3.95;3.40;;;26.30;92.70;;;;;;4994868;28;20231;-60
2022/06/28 07:29:37;;;;;;;2.40;2.30;;;26.20;92.80;;;;;;4991726;28;20199;-60
2022/06/28 07:32:04;;;;;;;6.93;5.05;;;26.20;92.80;;;;;;4985799;28;20298;-60
2022/06/28 07:34:32;;;;;;;4.35;3.95;;;26.20;93.40;;;;;;4998819;28;20298;-60
2022/06/28 07:37:00;;;;;;;3.95;3.65;;;26.10;93.70;;;;;;4988466;28;20204;-60
2022/06/28 07:39:27;;;;;;;3.20;3.00;;;26.10;93.70;;;;;;4988188;28;20196;-61
2022/06/28 07:42:13;;;;;;;3.42;2.92;;;26.10;93.60;;;;;;4991698;28;21073;-60
2022/06/28 07:45:04;;;;;;;3.40;3.15;;;26.10;93.60;;;;;;4988592;28;20211;-59
2022/06/28 07:47:32;;;;;;;3.35;2.65;;;26.10;93.60;;;;;;4983835;28;20204;-60
2022/06/28 07:52:46;;;;;;;2.58;2.38;;;26.10;93.50;;;;;;4993204;28;20471;-60
2022/06/28 07:55:15;;;;;;;2.78;2.38;;;26.20;93.50;;;;;;4996085;28;20200;-60
2022/06/28 07:58:09;;;;;;;2.58;2.38;;;26.20;93.60;;;;;;4999352;28;20255;-60
2022/06/28 08:00:36;;;;;;;2.03;1.92;;;26.20;93.70;;;;;;5002812;28;20377;-60
2022/06/28 08:03:14;;;;;;;2.20;2.10;;;26.20;93.70;;;;;;4995816;28;20235;-60
2022/06/28 08:05:42;;;;;;;2.42;2.33;;;26.20;93.90;;;;;;4985025;28;20251;-60
2022/06/28 08:08:11;;;;;;;2.60;2.40;;;26.20;94.20;;;;;;4987497;28;20207;-60
2022/06/28 08:10:39;;;;;;;2.28;2.17;;;26.20;94.60;;;;;;4995850;28;20207;-60
2022/06/28 08:13:09;;;;;;;3.20;2.90;;;26.20;94.70;;;;;;4987354;28;20227;-60
2022/06/28 08:15:37;;;;;;;5.00;3.78;;;26.10;95.20;;;;;;4988952;28;20585;-60
2022/06/28 08:18:05;;;;;;;3.90;3.20;;;26.00;96.20;;;;;;4995946;28;20200;-60
2022/06/28 08:20:32;;;;;;;9.45;5.10;;;25.90;96.40;;;;;;4985684;28;20675;-60
2022/06/28 08:23:01;;;;;;;4.60;4.18;;;25.90;97.10;;;;;;4987345;28;20631;-60
2022/06/28 08:25:30;;;;;;;3.40;3.20;;;25.80;98.10;;;;;;4989277;28;20803;-60
2022/06/28 08:27:58;;;;;;;3.30;3.10;;;25.70;98.10;;;;;;5002867;28;20245;-60
2022/06/28 08:30:26;;;;;;;3.10;2.80;;;25.70;98.40;;;;;;4989443;28;20204;-60
2022/06/28 08:32:53;;;;;;;3.42;3.13;;;25.70;98.60;;;;;;4983386;28;20721;-60
2022/06/28 08:35:20;;;;;;;3.78;3.47;;;25.70;98.90;;;;;;4988390;28;20723;-60
2022/06/28 08:37:48;;;;;;;3.65;3.35;;;25.70;99.20;;;;;;4988322;28;20280;-60
2022/06/28 08:40:15;;;;;;;3.22;3.03;;;25.70;99.50;;;;;;4992801;28;20294;-60
2022/06/28 08:42:49;;;;;;;2.58;2.47;;;25.70;99.70;;;;;;4997537;28;20693;-60
2022/06/28 08:45:17;;;;;;;2.50;2.40;;;25.80;99.90;;;;;;5004544;28;20196;-60
2022/06/28 08:47:47;;;;;;;2.78;2.58;;;25.80;99.90;;;;;;5004321;28;20195;-60
2022/06/28 08:50:18;;;;;;;2.50;2.30;;;25.90;99.90;;;;;;5009533;28;20207;-61
2022/06/28 08:52:46;;;;;;;2.75;2.55;;;25.90;99.90;;;;;;4995754;28;20267;-60
2022/06/28 08:55:13;;;;;;;2.33;2.22;;;26.00;99.90;;;;;;4991433;28;20222;-60
2022/06/28 08:57:41;;;;;;;2.50;2.40;;;26.10;99.90;;;;;;4992227;28;20204;-60
2022/06/28 09:00:12;;;;;;;2.10;2.00;;;26.20;99.90;;;;;;5000118;28;20222;-60
2022/06/28 09:02:39;;;;;;;2.40;2.30;;;26.20;99.90;;;;;;5001414;28;20187;-60
2022/06/28 09:05:07;;;;;;;12.18;2.50;;;26.30;99.90;;;;;;4991987;28;20196;-60
2022/06/28 09:07:34;;;;;;;2.90;1.98;;;26.50;99.90;;;;;;4995945;28;20462;-60
2022/06/28 09:10:02;;;;;;;2.22;2.05;;;26.60;99.90;;;;;;4997297;28;20255;-60
2022/06/28 09:12:29;;;;;;;2.55;2.35;;;26.70;99.90;;;;;;4994720;28;20211;-60
2022/06/28 09:14:57;;;;;;;8.95;2.72;;;26.80;99.90;;;;;;4993644;28;20262;-60
2022/06/28 09:17:28;;;;;;;3.72;2.78;;;26.90;99.90;;;;;;4988262;28;20211;-60
2022/06/28 09:19:58;;;;;;;3.40;3.20;;;27.00;99.90;;;;;;4983732;28;20600;-60
2022/06/28 09:22:33;;;;;;;2.70;2.50;;;27.00;99.90;;;;;;4991604;28;20251;-60
2022/06/28 09:25:04;;;;;;;3.55;3.35;;;27.10;99.90;;;;;;4992320;28;20196;-60
2022/06/28 09:27:32;;;;;;;3.33;3.13;;;27.10;99.90;;;;;;5006591;28;20235;-59
2022/06/28 09:30:00;;;;;;;4.38;3.67;;;27.20;99.90;;;;;;5024876;28;20233;-59
2022/06/28 09:32:31;;;;;;;7.28;4.20;;;27.20;99.70;;;;;;5016578;28;20199;-60
2022/06/28 09:35:00;;;;;;;5.68;5.10;;;27.30;99.50;;;;;;5028480;28;20935;-60
2022/06/28 09:37:39;;;;;;;5.55;4.97;;;27.30;99.20;;;;;;5030241;28;20198;-61
2022/06/28 09:40:11;;;;;;;9.25;6.43;;;27.50;99.00;;;;;;5029732;28;20606;-60
2022/06/28 09:42:38;;;;;;;9.65;6.97;;;27.50;98.70;;;;;;5030501;28;20651;-60
2022/06/28 09:45:06;;;;;;;8.63;5.50;;;27.50;98.50;;;;;;5030260;28;20194;-60
2022/06/28 09:47:35;;;;;;;9.40;6.10;;;27.60;98.40;;;;;;5029577;28;20290;-60
2022/06/28 09:50:06;;;;;;;5.40;4.88;;;27.60;98.50;;;;;;5028595;28;20204;-60
2022/06/28 09:52:35;;;;;;;7.13;4.38;;;27.70;98.00;;;;;;5030851;28;20195;-60
2022/06/28 09:55:03;;;;;;;5.00;4.43;;;27.70;97.70;;;;;;5029243;28;20264;-62
2022/06/28 09:57:32;;;;;;;4.65;4.25;;;27.70;97.50;;;;;;5030346;28;20206;-60
2022/06/28 10:00:00;;;;;;;5.13;4.63;;;27.80;97.30;;;;;;5030149;28;20238;-60
2022/06/28 10:02:28;;;;;;;4.00;3.70;;;27.80;97.20;;;;;;5028572;28;20203;-61
2022/06/28 10:05:00;;;;;;;4.65;3.55;;;27.80;97.10;;;;;;5027899;28;20248;-60
2022/06/28 10:07:30;;;;;;;3.97;3.30;;;27.90;97.20;;;;;;5026936;28;20201;-61
2022/06/28 10:09:57;;;;;;;3.40;3.20;;;28.00;97.40;;;;;;5030535;28;20659;-61
2022/06/28 10:15:10;;;;;;;5.03;4.63;;;28.20;97.40;;;;;;5030900;28;20243;-61
2022/06/28 10:17:48;;;;;;;4.53;4.13;;;28.30;97.20;;;;;;5030219;28;20210;-61
2022/06/28 10:20:21;;;;;;;4.45;3.78;;;28.30;97.00;;;;;;5028993;28;20252;-61
2022/06/28 10:22:49;;;;;;;4.60;4.20;;;28.40;96.90;;;;;;5030224;28;20664;-62
2022/06/28 10:25:18;;;;;;;5.45;4.10;;;28.50;96.80;;;;;;5030797;28;20523;-61
2022/06/28 10:27:47;;;;;;;4.15;3.80;;;28.50;96.60;;;;;;5031059;28;20226;-61
2022/06/28 10:30:29;;;;;;;4.55;3.72;;;28.60;96.60;;;;;;5030545;28;20206;-61
2022/06/28 10:32:57;;;;;;;4.90;4.30;;;28.60;96.50;;;;;;5021304;28;20230;-61
2022/06/28 10:35:54;;;;;;;4.05;3.72;;;28.60;96.40;;;;;;5028323;28;20252;-61
2022/06/28 10:38:23;;;;;;;3.80;3.50;;;28.60;96.40;;;;;;5030194;28;20187;-61
2022/06/28 10:40:50;;;;;;;3.90;3.67;;;28.60;96.30;;;;;;5030866;28;20202;-61
2022/06/28 10:43:43;;;;;;;3.67;3.47;;;28.50;96.30;;;;;;5028809;28;20199;-61
2022/06/28 10:46:11;;;;;;;3.58;3.38;;;28.40;96.40;;;;;;5030613;28;20277;-62
2022/06/28 10:49:06;;;;;;;3.97;3.58;;;28.30;96.40;;;;;;5028580;28;20381;-61
2022/06/28 10:51:36;;;;;;;4.13;3.80;;;28.30;96.50;;;;;;5012349;28;20310;-61
2022/06/28 10:54:06;;;;;;;4.60;4.20;;;28.30;96.60;;;;;;5028733;28;20345;-62
2022/06/28 10:56:44;;;;;;;4.82;4.25;;;28.30;96.80;;;;;;5030295;28;20611;-61
2022/06/28 10:59:13;;;;;;;5.25;4.13;;;28.30;97.00;;;;;;5028700;28;20202;-61
2022/06/28 11:01:59;;;;;;;6.50;3.95;;;28.30;97.20;;;;;;5029491;28;20253;-61
2022/06/28 11:04:28;;;;;;;4.50;4.10;;;28.30;97.10;;;;;;5028003;28;20485;-61
2022/06/28 11:07:05;;;;;;;4.55;3.92;;;28.40;97.10;;;;;;5029832;28;20202;-61
2022/06/28 11:09:48;;;;;;;8.57;3.92;;;28.50;97.00;;;;;;5024230;28;20198;-60
2022/06/28 11:12:17;;;;;;;4.90;4.18;;;28.60;96.90;;;;;;5029099;28;20626;-60
2022/06/28 11:14:50;;;;;;;4.80;4.35;;;28.60;97.00;;;;;;5029295;28;20218;-60
2022/06/28 11:17:19;;;;;;;4.60;3.58;;;28.60;97.00;;;;;;5023345;28;20662;-60
2022/06/28 11:19:54;;;;;;;3.55;3.25;;;28.50;97.00;;;;;;5022760;28;20213;-61
2022/06/28 11:22:25;;;;;;;4.10;3.75;;;28.50;97.00;;;;;;5028554;28;20251;-61
2022/06/28 11:24:53;;;;;;;2.97;2.78;;;28.40;97.10;;;;;;5028906;28;20218;-62
2022/06/28 11:27:22;;;;;;;3.10;2.90;;;28.40;97.20;;;;;;5029094;28;20242;-61
2022/06/28 11:29:51;;;;;;;2.50;2.40;;;28.30;97.20;;;;;;5020667;28;20204;-61
2022/06/28 11:32:21;;;;;;;2.83;2.70;;;28.20;97.20;;;;;;5026484;28;20199;-61
2022/06/28 11:34:56;;;;;;;2.70;2.60;;;28.10;97.30;;;;;;5026811;28;20650;-61
2022/06/28 11:37:25;;;;;;;2.45;2.35;;;28.10;97.40;;;;;;5029022;28;20198;-62
2022/06/28 11:39:55;;;;;;;2.20;2.10;;;28.00;97.50;;;;;;5024762;28;20211;-61
2022/06/28 11:42:22;;;;;;;2.30;2.20;;;27.90;97.50;;;;;;5009738;28;20206;-62
2022/06/28 11:44:51;;;;;;;2.33;2.10;;;27.90;97.60;;;;;;5028834;28;20264;-62
2022/06/28 11:47:19;;;;;;;3.30;3.00;;;27.90;97.70;;;;;;5027514;28;20195;-61
2022/06/28 11:49:52;;;;;;;8.90;3.70;;;27.80;97.80;;;;;;5027046;28;20376;-61
2022/06/28 11:52:19;;;;;;;2.80;2.60;;;27.80;98.00;;;;;;5026197;28;20216;-62
2022/06/28 11:54:54;;;;;;;3.03;2.83;;;27.70;98.00;;;;;;5026757;28;20276;-61
2022/06/28 11:57:22;;;;;;;3.00;2.83;;;27.70;98.00;;;;;;5028746;28;20195;-62
2022/06/28 11:59:57;;;;;;;39.75;12.02;;;27.70;98.00;;;;;;5028406;28;20198;-61
2022/06/28 12:02:41;;;;;;;65.78;20.42;;;27.70;98.00;;;;;;5024773;28;20602;-61
2022/06/28 12:05:09;;;;;;;23.10;10.15;;;27.70;98.20;;;;;;5026957;28;20273;-62
2022/06/28 12:07:38;;;;;;;13.57;7.18;;;27.70;98.40;;;;;;5023592;28;20194;-62
2022/06/28 12:10:19;;;;;;;6.43;4.97;;;27.60;98.70;;;;;;5028325;28;20194;-62
2022/06/28 12:12:46;;;;;;;7.38;3.70;;;27.50;99.00;;;;;;5028056;28;20697;-61
2022/06/28 12:15:13;;;;;;;3.58;3.38;;;27.40;99.30;;;;;;5032718;28;20321;-62
2022/06/28 12:17:48;;;;;;;3.75;3.45;;;27.30;99.40;;;;;;5021943;28;20203;-61
2022/06/28 12:20:17;;;;;;;3.28;3.08;;;27.20;99.70;;;;;;5011966;28;20217;-61
2022/06/28 12:22:55;;;;;;;3.72;3.42;;;27.10;99.90;;;;;;5031345;28;20245;-62
2022/06/28 12:25:23;;;;;;;3.60;3.33;;;27.00;99.80;;;;;;5032397;28;20285;-62
2022/06/28 12:27:50;;;;;;;2.90;2.67;;;27.00;99.80;;;;;;5032427;28;20230;-62
2022/06/28 12:30:17;;;;;;;2.72;2.63;;;27.00;99.90;;;;;;5031427;28;20190;-61
2022/06/28 12:32:45;;;;;;;3.20;3.00;;;27.00;99.90;;;;;;5026853;28;20202;-62
2022/06/28 12:35:13;;;;;;;3.40;3.17;;;27.00;99.90;;;;;;5027397;28;20317;-60
2022/06/28 12:37:40;;;;;;;3.33;3.13;;;27.00;99.90;;;;;;5032430;28;20226;-60
2022/06/28 12:40:09;;;;;;;3.70;3.50;;;27.00;99.90;;;;;;5031771;28;20221;-60
2022/06/28 12:42:38;;;;;;;3.25;3.05;;;27.00;99.90;;;;;;5031523;28;20607;-61
2022/06/28 12:45:06;;;;;;;3.65;3.45;;;26.90;99.90;;;;;;5032386;28;20178;-60
2022/06/28 12:47:36;;;;;;;3.08;2.88;;;26.90;99.80;;;;;;5031424;28;20198;-60
2022/06/28 12:50:05;;;;;;;2.78;2.67;;;26.90;99.80;;;;;;5030225;28;20195;-60
2022/06/28 12:52:34;;;;;;;3.38;3.17;;;26.90;99.80;;;;;;5031582;28;20657;-60
2022/06/28 12:55:01;;;;;;;2.60;2.50;;;26.90;99.70;;;;;;5032377;28;20331;-60
2022/06/28 12:57:29;;;;;;;3.00;2.80;;;27.00;99.70;;;;;;5031503;28;20217;-60
2022/06/28 12:59:57;;;;;;;2.97;2.88;;;26.90;99.60;;;;;;5032113;28;20199;-61
2022/06/28 13:02:25;;;;;;;3.20;3.00;;;27.00;99.60;;;;;;5030456;28;20270;-60
2022/06/28 13:04:52;;;;;;;6.00;4.10;;;26.90;99.50;;;;;;5030327;28;20195;-59
2022/06/28 13:07:21;;;;;;;5.38;3.80;;;27.00;99.40;;;;;;5031367;28;20248;-57
2022/06/28 13:09:48;;;;;;;3.08;2.88;;;26.90;99.30;;;;;;5031582;28;20199;-58
2022/06/28 13:12:15;;;;;;;3.10;2.80;;;26.90;99.20;;;;;;5030736;28;20230;-70
2022/06/28 13:14:42;;;;;;;3.00;2.80;;;26.90;99.10;;;;;;5031434;28;20261;-71
2022/06/28 13:17:10;;;;;;;2.72;2.50;;;26.90;99.00;;;;;;5031159;28;20482;-71